createdAt,value
2018-08-12T00:00:33.907Z,51.57
2018-08-12T00:01:14.471Z,51.57
2018-08-12T00:01:55.054Z,50.99
2018-08-12T00:02:35.625Z,51.48
2018-08-12T00:03:16.182Z,51.55
2018-08-12T00:03:56.744Z,51.38
2018-08-12T00:04:37.297Z,52.12
2018-08-12T00:05:17.931Z,51.93
2018-08-12T00:05:58.542Z,52.32
2018-08-12T00:06:39.084Z,52.42
2018-08-12T00:07:19.630Z,52.51
2018-08-12T00:08:00.194Z,52.42
2018-08-12T00:08:40.756Z,52.12
2018-08-12T00:09:21.319Z,52.32
2018-08-12T00:10:01.868Z,52.22
2018-08-12T00:10:42.477Z,52.22
2018-08-12T00:11:23.037Z,52.7
2018-08-12T00:12:03.594Z,52.8
2018-08-12T00:12:44.155Z,52.8
2018-08-12T00:13:24.733Z,52.61
2018-08-12T00:14:05.312Z,52.7
2018-08-12T00:14:45.874Z,52.61
2018-08-12T00:15:26.482Z,52.7
2018-08-12T00:16:07.036Z,52.68
2018-08-12T00:16:47.591Z,53.19
2018-08-12T00:17:28.149Z,52.99
2018-08-12T00:18:08.796Z,52.8
2018-08-12T00:18:49.354Z,53.16
2018-08-12T00:19:29.920Z,53.25
2018-08-12T00:20:10.564Z,53.45
2018-08-12T00:20:51.152Z,53.35
2018-08-12T00:21:31.702Z,53.54
2018-08-12T00:22:12.250Z,53.54
2018-08-12T00:22:52.824Z,53.86
2018-08-12T00:23:33.387Z,53.54
2018-08-12T00:24:13.958Z,53.45
2018-08-12T00:24:54.490Z,53.64
2018-08-12T00:25:35.062Z,53.74
2018-08-12T00:26:15.632Z,53.74
2018-08-12T00:26:56.213Z,53.74
2018-08-12T00:27:36.787Z,53.96
2018-08-12T00:28:17.361Z,53.57
2018-08-12T00:28:57.940Z,53.47
2018-08-12T00:29:38.508Z,53.57
2018-08-12T00:30:19.074Z,53.86
2018-08-12T00:30:59.769Z,53.38
2018-08-12T00:31:40.321Z,53.76
2018-08-12T00:32:20.870Z,53.47
2018-08-12T00:33:01.467Z,52.99
2018-08-12T00:33:42.026Z,53.09
2018-08-12T00:34:22.608Z,53.09
2018-08-12T00:35:03.150Z,53.09
2018-08-12T00:35:43.715Z,53.28
2018-08-12T00:36:24.293Z,53.28
2018-08-12T00:37:04.896Z,53.57
2018-08-12T00:37:45.483Z,53.57
2018-08-12T00:38:26.073Z,53.76
2018-08-12T00:39:06.636Z,53.38
2018-08-12T00:39:47.199Z,53.86
2018-08-12T00:40:27.762Z,53.28
2018-08-12T00:41:08.356Z,53.96
2018-08-12T00:41:48.913Z,53.38
2018-08-12T00:42:29.486Z,53.86
2018-08-12T00:43:10.046Z,53.57
2018-08-12T00:43:50.606Z,53.64
2018-08-12T00:44:31.161Z,54.14
2018-08-12T00:45:11.732Z,54.24
2018-08-12T00:45:52.314Z,53.57
2018-08-12T00:46:32.851Z,53.86
2018-08-12T00:47:13.442Z,53.76
2018-08-12T00:47:53.992Z,53.96
2018-08-12T00:48:34.558Z,53.86
2018-08-12T00:49:15.098Z,53.64
2018-08-12T00:49:55.648Z,53.86
2018-08-12T00:50:36.219Z,54.53
2018-08-12T00:51:16.819Z,54.41
2018-08-12T00:51:57.435Z,54.31
2018-08-12T00:52:38.000Z,54.43
2018-08-12T00:53:18.564Z,54.41
2018-08-12T00:53:59.116Z,54.14
2018-08-12T00:54:39.675Z,54.24
2018-08-12T00:55:20.232Z,54.72
2018-08-12T00:56:00.807Z,54.24
2018-08-12T00:56:41.387Z,54.43
2018-08-12T00:57:22.058Z,54.63
2018-08-12T00:58:02.628Z,54.14
2018-08-12T00:58:43.171Z,54.34
2018-08-12T00:59:23.716Z,54.34
2018-08-12T01:00:04.275Z,54.34
2018-08-12T01:00:44.828Z,54.43
2018-08-12T01:01:25.386Z,54.24
2018-08-12T01:02:05.974Z,54.41
2018-08-12T01:02:46.557Z,54.34
2018-08-12T01:03:27.142Z,54.41
2018-08-12T01:04:07.740Z,54.6
2018-08-12T01:04:48.297Z,54.22
2018-08-12T01:05:28.857Z,54.79
2018-08-12T01:06:09.441Z,54.5
2018-08-12T01:06:49.998Z,55.18
2018-08-12T01:07:30.577Z,55.18
2018-08-12T01:08:11.146Z,54.89
2018-08-12T01:08:51.707Z,55.37
2018-08-12T01:09:32.264Z,55.37
2018-08-12T01:10:12.832Z,55.37
2018-08-12T01:10:53.407Z,55.27
2018-08-12T01:11:33.962Z,55.37
2018-08-12T01:12:14.545Z,55.56
2018-08-12T01:12:55.127Z,55.66
2018-08-12T01:13:35.692Z,56.21
2018-08-12T01:14:16.264Z,56.04
2018-08-12T01:14:56.843Z,56.14
2018-08-12T01:15:37.434Z,56.23
2018-08-12T01:16:18.014Z,55.66
2018-08-12T01:16:58.565Z,56.14
2018-08-12T01:17:39.115Z,56.33
2018-08-12T01:18:19.667Z,56.14
2018-08-12T01:19:00.234Z,55.94
2018-08-12T01:19:40.790Z,55.37
2018-08-12T01:20:21.337Z,55.56
2018-08-12T01:21:01.913Z,55.76
2018-08-12T01:21:42.484Z,55.85
2018-08-12T01:22:23.051Z,55.94
2018-08-12T01:23:03.595Z,56.43
2018-08-12T01:23:44.155Z,56.14
2018-08-12T01:24:24.700Z,55.66
2018-08-12T01:25:05.273Z,55.94
2018-08-12T01:25:45.848Z,55.76
2018-08-12T01:26:26.430Z,55.85
2018-08-12T01:27:06.983Z,56.14
2018-08-12T01:27:47.589Z,56.04
2018-08-12T01:28:28.158Z,56.04
2018-08-12T01:29:08.726Z,55.76
2018-08-12T01:29:49.294Z,56.23
2018-08-12T01:30:29.837Z,56.59
2018-08-12T01:31:10.410Z,56.4
2018-08-12T01:31:50.972Z,56.78
2018-08-12T01:32:31.549Z,56.59
2018-08-12T01:33:12.229Z,56.98
2018-08-12T01:33:52.776Z,57.07
2018-08-12T01:34:33.387Z,56.88
2018-08-12T01:35:13.959Z,57.17
2018-08-12T01:35:54.645Z,57.55
2018-08-12T01:36:35.110Z,57.45
2018-08-12T01:37:15.676Z,57.45
2018-08-12T01:37:56.237Z,57.36
2018-08-12T01:38:36.845Z,57.36
2018-08-12T01:39:17.407Z,57.36
2018-08-12T01:39:57.975Z,57.07
2018-08-12T01:40:38.528Z,57.07
2018-08-12T01:41:19.072Z,57.36
2018-08-12T01:41:59.650Z,57.07
2018-08-12T01:42:40.234Z,57.26
2018-08-12T01:43:20.759Z,57.17
2018-08-12T01:44:01.379Z,57.65
2018-08-12T01:44:41.953Z,57.07
2018-08-12T01:45:22.521Z,57.17
2018-08-12T01:46:03.105Z,57.45
2018-08-12T01:46:43.664Z,57.65
2018-08-12T01:47:24.237Z,57.84
2018-08-12T01:48:04.785Z,57.84
2018-08-12T01:48:45.367Z,57.65
2018-08-12T01:49:25.925Z,57.93
2018-08-12T01:50:06.480Z,58.03
2018-08-12T01:50:47.039Z,58.03
2018-08-12T01:51:27.585Z,57.93
2018-08-12T01:52:08.132Z,58.22
2018-08-12T01:52:48.697Z,58.51
2018-08-12T01:53:29.255Z,57.9
2018-08-12T01:54:09.822Z,58.03
2018-08-12T01:54:50.384Z,58.32
2018-08-12T01:55:30.959Z,58.32
2018-08-12T01:56:11.521Z,57.9
2018-08-12T01:56:52.083Z,58.22
2018-08-12T01:57:32.640Z,58.13
2018-08-12T01:58:13.204Z,58.2
2018-08-12T01:58:53.758Z,58.22
2018-08-12T01:59:34.313Z,57.65
2018-08-12T02:00:14.870Z,57.71
2018-08-12T02:00:55.421Z,58.2
2018-08-12T02:01:35.978Z,58.58
2018-08-12T02:02:16.539Z,58.48
2018-08-12T02:02:57.117Z,58.29
2018-08-12T02:03:37.675Z,58.58
2018-08-12T02:04:18.244Z,58.48
2018-08-12T02:04:58.810Z,58.29
2018-08-12T02:05:39.376Z,58.58
2018-08-12T02:06:19.949Z,58.39
2018-08-12T02:07:00.514Z,58.67
2018-08-12T02:07:41.084Z,58.58
2018-08-12T02:08:21.639Z,58.48
2018-08-12T02:09:02.189Z,58.32
2018-08-12T02:09:42.739Z,58.48
2018-08-12T02:10:23.314Z,58.48
2018-08-12T02:11:03.876Z,58.61
2018-08-12T02:11:44.455Z,58.58
2018-08-12T02:12:25.018Z,58.58
2018-08-12T02:13:05.594Z,58.2
2018-08-12T02:13:46.155Z,58.29
2018-08-12T02:14:26.726Z,58.29
2018-08-12T02:15:07.277Z,58.29
2018-08-12T02:15:47.851Z,58.87
2018-08-12T02:16:28.416Z,58.48
2018-08-12T02:17:08.959Z,58.77
2018-08-12T02:17:49.537Z,58.48
2018-08-12T02:18:30.096Z,58.48
2018-08-12T02:19:10.651Z,58.77
2018-08-12T02:19:51.207Z,58.32
2018-08-12T02:20:31.805Z,58.67
2018-08-12T02:21:12.357Z,58.67
2018-08-12T02:21:52.927Z,58.67
2018-08-12T02:22:33.475Z,58.87
2018-08-12T02:23:14.651Z,58.77
2018-08-12T02:23:55.220Z,58.67
2018-08-12T02:24:35.786Z,58.29
2018-08-12T02:25:16.360Z,58.87
2018-08-12T02:25:56.932Z,58.67
2018-08-12T02:26:37.507Z,58.58
2018-08-12T02:27:18.071Z,58.67
2018-08-12T02:27:58.627Z,58.67
2018-08-12T02:28:39.189Z,58.77
2018-08-12T02:29:19.759Z,59.25
2018-08-12T02:30:00.355Z,58.96
2018-08-12T02:30:40.900Z,58.77
2018-08-12T02:31:21.454Z,58.77
2018-08-12T02:32:02.036Z,59.54
2018-08-12T02:32:42.588Z,58.96
2018-08-12T02:33:23.167Z,58.87
2018-08-12T02:34:03.711Z,59.06
2018-08-12T02:34:44.285Z,58.87
2018-08-12T02:35:24.833Z,59.16
2018-08-12T02:36:05.396Z,59.16
2018-08-12T02:36:45.964Z,58.67
2018-08-12T02:37:26.541Z,58.77
2018-08-12T02:38:07.098Z,59.44
2018-08-12T02:38:47.700Z,59.64
2018-08-12T02:39:28.256Z,59.54
2018-08-12T02:40:08.809Z,59.25
2018-08-12T02:40:49.361Z,59.25
2018-08-12T02:41:29.917Z,59.34
2018-08-12T02:42:10.484Z,59.25
2018-08-12T02:42:51.058Z,59.34
2018-08-12T02:43:31.603Z,59.57
2018-08-12T02:44:12.199Z,59.06
2018-08-12T02:44:52.717Z,58.87
2018-08-12T02:45:33.276Z,59.09
2018-08-12T02:46:13.862Z,58.96
2018-08-12T02:46:54.413Z,58.89
2018-08-12T02:47:34.988Z,58.51
2018-08-12T02:48:15.558Z,58.42
2018-08-12T02:48:56.121Z,58.42
2018-08-12T02:49:36.694Z,58.7
2018-08-12T02:50:17.266Z,58.61
2018-08-12T02:50:57.809Z,58.22
2018-08-12T02:51:38.390Z,58.42
2018-08-12T02:52:18.955Z,58.42
2018-08-12T02:52:59.529Z,58.22
2018-08-12T02:53:40.093Z,58.32
2018-08-12T02:54:20.665Z,58.03
2018-08-12T02:55:01.219Z,58.03
2018-08-12T02:55:41.803Z,57.55
2018-08-12T02:56:22.356Z,57.55
2018-08-12T02:57:02.938Z,57.55
2018-08-12T02:57:43.495Z,57.84
2018-08-12T02:58:24.056Z,57.26
2018-08-12T02:59:04.628Z,57.45
2018-08-12T02:59:45.179Z,57.36
2018-08-12T03:00:25.730Z,57.75
2018-08-12T03:01:06.305Z,57.55
2018-08-12T03:01:46.881Z,57.36
2018-08-12T03:02:27.433Z,57.17
2018-08-12T03:03:07.992Z,57.36
2018-08-12T03:03:48.551Z,57.29
2018-08-12T03:04:29.129Z,57.17
2018-08-12T03:05:09.695Z,57.1
2018-08-12T03:05:50.252Z,57
2018-08-12T03:06:30.809Z,56.62
2018-08-12T03:07:11.357Z,56.52
2018-08-12T03:07:51.909Z,56.43
2018-08-12T03:08:32.503Z,56.21
2018-08-12T03:09:13.067Z,56.68
2018-08-12T03:09:53.618Z,56.62
2018-08-12T03:10:34.196Z,56.3
2018-08-12T03:11:14.806Z,56.88
2018-08-12T03:11:55.349Z,56.3
2018-08-12T03:12:35.922Z,56.01
2018-08-12T03:13:16.494Z,56.4
2018-08-12T03:13:57.053Z,56.59
2018-08-12T03:14:37.609Z,56.3
2018-08-12T03:15:18.166Z,56.3
2018-08-12T03:15:58.755Z,56.78
2018-08-12T03:16:39.320Z,56.49
2018-08-12T03:17:19.867Z,56.3
2018-08-12T03:18:00.442Z,56.3
2018-08-12T03:18:41.021Z,56.59
2018-08-12T03:19:21.564Z,56.59
2018-08-12T03:20:02.112Z,56.4
2018-08-12T03:20:42.672Z,56.3
2018-08-12T03:21:23.219Z,56.4
2018-08-12T03:22:03.810Z,56.49
2018-08-12T03:22:44.379Z,56.59
2018-08-12T03:23:24.937Z,55.91
2018-08-12T03:24:05.495Z,55.91
2018-08-12T03:24:46.047Z,56.21
2018-08-12T03:25:26.613Z,56.11
2018-08-12T03:26:07.202Z,56.01
2018-08-12T03:26:47.765Z,55.53
2018-08-12T03:27:28.332Z,55.53
2018-08-12T03:28:08.881Z,55.24
2018-08-12T03:28:49.442Z,55.05
2018-08-12T03:29:29.993Z,55.05
2018-08-12T03:30:10.603Z,55.34
2018-08-12T03:30:51.143Z,55.44
2018-08-12T03:31:31.713Z,55.34
2018-08-12T03:32:12.273Z,55.24
2018-08-12T03:32:52.831Z,55.44
2018-08-12T03:33:33.398Z,55.79
2018-08-12T03:34:13.979Z,55.89
2018-08-12T03:34:54.537Z,55.41
2018-08-12T03:35:35.093Z,55.53
2018-08-12T03:36:15.648Z,55.91
2018-08-12T03:36:56.207Z,55.44
2018-08-12T03:37:36.759Z,55.24
2018-08-12T03:38:17.326Z,55.44
2018-08-12T03:38:57.888Z,55.82
2018-08-12T03:39:38.463Z,55.44
2018-08-12T03:40:19.057Z,55.05
2018-08-12T03:40:59.612Z,55.63
2018-08-12T03:41:40.187Z,55.24
2018-08-12T03:42:20.770Z,54.96
2018-08-12T03:43:01.326Z,55.34
2018-08-12T03:43:41.865Z,54.77
2018-08-12T03:44:22.433Z,54.86
2018-08-12T03:45:03.012Z,54.67
2018-08-12T03:45:43.582Z,54.96
2018-08-12T03:46:24.141Z,55.05
2018-08-12T03:47:04.751Z,54.96
2018-08-12T03:47:45.385Z,54.86
2018-08-12T03:48:25.934Z,54.86
2018-08-12T03:49:06.540Z,55.73
2018-08-12T03:49:47.112Z,54.96
2018-08-12T03:50:27.677Z,54.77
2018-08-12T03:51:08.228Z,55.15
2018-08-12T03:51:48.782Z,54.47
2018-08-12T03:52:29.352Z,54.86
2018-08-12T03:53:09.918Z,54.86
2018-08-12T03:53:50.477Z,54.96
2018-08-12T03:54:31.031Z,55.05
2018-08-12T03:55:11.603Z,54.86
2018-08-12T03:55:52.178Z,54.67
2018-08-12T03:56:32.750Z,54.57
2018-08-12T03:57:13.326Z,54.77
2018-08-12T03:57:53.896Z,54.57
2018-08-12T03:58:34.458Z,54.96
2018-08-12T03:59:15.048Z,55.53
2018-08-12T03:59:55.633Z,55.24
2018-08-12T04:00:36.198Z,55.24
2018-08-12T04:01:16.793Z,55.05
2018-08-12T04:01:57.350Z,54.86
2018-08-12T04:02:37.920Z,54.86
2018-08-12T04:03:18.515Z,54.57
2018-08-12T04:03:59.081Z,54.38
2018-08-12T04:04:39.652Z,54.57
2018-08-12T04:05:20.188Z,54.77
2018-08-12T04:06:00.740Z,54.28
2018-08-12T04:06:41.319Z,54.57
2018-08-12T04:07:21.921Z,54.47
2018-08-12T04:08:02.503Z,54.67
2018-08-12T04:08:43.074Z,54.47
2018-08-12T04:09:23.630Z,54.86
2018-08-12T04:10:04.205Z,54.47
2018-08-12T04:10:44.782Z,54.28
2018-08-12T04:11:25.427Z,54.28
2018-08-12T04:12:05.979Z,54.38
2018-08-12T04:12:46.535Z,54.38
2018-08-12T04:13:27.099Z,54.86
2018-08-12T04:14:07.641Z,54.77
2018-08-12T04:14:48.204Z,54.67
2018-08-12T04:15:28.772Z,54.96
2018-08-12T04:16:09.376Z,54.96
2018-08-12T04:16:49.944Z,55.15
2018-08-12T04:17:30.525Z,54.57
2018-08-12T04:18:11.074Z,54.86
2018-08-12T04:18:51.652Z,54.77
2018-08-12T04:19:32.187Z,54.38
2018-08-12T04:20:12.751Z,55.15
2018-08-12T04:20:53.314Z,55.15
2018-08-12T04:21:33.863Z,54.38
2018-08-12T04:22:14.439Z,54.96
2018-08-12T04:22:55.016Z,54.67
2018-08-12T04:23:35.582Z,54.47
2018-08-12T04:24:16.137Z,54.57
2018-08-12T04:24:56.771Z,54.47
2018-08-12T04:25:37.357Z,54.38
2018-08-12T04:26:17.920Z,54.47
2018-08-12T04:26:58.492Z,54.28
2018-08-12T04:27:39.054Z,54.47
2018-08-12T04:28:19.617Z,54.38
2018-08-12T04:29:00.174Z,54.57
2018-08-12T04:29:40.720Z,54.28
2018-08-12T04:30:21.277Z,54.57
2018-08-12T04:31:01.834Z,54.47
2018-08-12T04:31:42.419Z,54.47
2018-08-12T04:32:22.975Z,54.86
2018-08-12T04:33:03.553Z,54.67
2018-08-12T04:33:44.109Z,54.38
2018-08-12T04:34:24.672Z,55.05
2018-08-12T04:35:05.234Z,54.77
2018-08-12T04:35:45.797Z,54.19
2018-08-12T04:36:26.352Z,54.28
2018-08-12T04:37:06.936Z,54.67
2018-08-12T04:37:47.497Z,54.86
2018-08-12T04:38:28.073Z,54.77
2018-08-12T04:39:08.646Z,54.09
2018-08-12T04:39:49.206Z,54.67
2018-08-12T04:40:29.761Z,54.67
2018-08-12T04:41:10.319Z,55.05
2018-08-12T04:41:50.888Z,54.96
2018-08-12T04:42:31.452Z,54.96
2018-08-12T04:43:12.006Z,54.96
2018-08-12T04:43:52.566Z,55.34
2018-08-12T04:44:33.122Z,55.34
2018-08-12T04:45:13.672Z,54.86
2018-08-12T04:45:54.264Z,54.86
2018-08-12T04:46:34.817Z,54.96
2018-08-12T04:47:15.371Z,55.05
2018-08-12T04:47:55.947Z,54.96
2018-08-12T04:48:36.551Z,54.67
2018-08-12T04:49:17.109Z,54.96
2018-08-12T04:49:57.663Z,54.86
2018-08-12T04:50:38.234Z,55.05
2018-08-12T04:51:18.829Z,54.96
2018-08-12T04:51:59.410Z,54.96
2018-08-12T04:52:39.959Z,54.96
2018-08-12T04:53:20.526Z,54.86
2018-08-12T04:54:01.073Z,54.57
2018-08-12T04:54:41.639Z,54.5
2018-08-12T04:55:22.199Z,54.31
2018-08-12T04:56:02.765Z,54.38
2018-08-12T04:56:43.340Z,54.28
2018-08-12T04:57:24.089Z,54.57
2018-08-12T04:58:04.728Z,54.19
2018-08-12T04:58:45.250Z,54.38
2018-08-12T04:59:25.810Z,54.77
2018-08-12T05:00:06.379Z,54.38
2018-08-12T05:00:46.931Z,54.47
2018-08-12T05:01:27.503Z,54.47
2018-08-12T05:02:08.089Z,54.19
2018-08-12T05:02:48.627Z,54.77
2018-08-12T05:03:29.178Z,54.67
2018-08-12T05:04:09.753Z,54.77
2018-08-12T05:04:50.311Z,54.86
2018-08-12T05:05:30.868Z,54.86
2018-08-12T05:06:11.430Z,54.57
2018-08-12T05:06:51.992Z,54.57
2018-08-12T05:07:32.553Z,54.47
2018-08-12T05:08:13.111Z,54.86
2018-08-12T05:08:53.672Z,54.77
2018-08-12T05:09:34.233Z,54.57
2018-08-12T05:10:14.786Z,54.57
2018-08-12T05:10:55.359Z,54.69
2018-08-12T05:11:35.914Z,54.77
2018-08-12T05:12:16.488Z,54.19
2018-08-12T05:12:57.054Z,53.32
2018-08-12T05:13:37.631Z,54.09
2018-08-12T05:14:18.196Z,54.77
2018-08-12T05:14:58.764Z,54.77
2018-08-12T05:15:39.316Z,55.05
2018-08-12T05:16:19.877Z,54.86
2018-08-12T05:17:00.438Z,54.86
2018-08-12T05:17:41.000Z,54.67
2018-08-12T05:18:21.580Z,55.34
2018-08-12T05:19:02.139Z,55.15
2018-08-12T05:19:42.716Z,54.86
2018-08-12T05:20:23.306Z,54.86
2018-08-12T05:21:03.862Z,54.86
2018-08-12T05:21:44.423Z,54.86
2018-08-12T05:22:24.993Z,54.96
2018-08-12T05:23:05.554Z,54.99
2018-08-12T05:23:46.107Z,54.86
2018-08-12T05:24:26.662Z,54.96
2018-08-12T05:25:07.254Z,55.08
2018-08-12T05:25:47.819Z,54.47
2018-08-12T05:26:28.382Z,54.69
2018-08-12T05:27:08.952Z,54.5
2018-08-12T05:27:49.504Z,54.6
2018-08-12T05:28:30.070Z,54.89
2018-08-12T05:29:10.627Z,54.69
2018-08-12T05:29:51.191Z,54.79
2018-08-12T05:30:31.764Z,54.89
2018-08-12T05:31:12.359Z,54.31
2018-08-12T05:31:52.932Z,54.5
2018-08-12T05:32:33.499Z,54.31
2018-08-12T05:33:14.105Z,54.41
2018-08-12T05:33:54.710Z,54.31
2018-08-12T05:34:35.304Z,53.74
2018-08-12T05:35:15.868Z,54.02
2018-08-12T05:35:56.429Z,54.31
2018-08-12T05:36:37.026Z,54.5
2018-08-12T05:37:17.596Z,54.31
2018-08-12T05:37:58.159Z,54.12
2018-08-12T05:38:38.727Z,54.02
2018-08-12T05:39:19.294Z,54.02
2018-08-12T05:39:59.853Z,54.5
2018-08-12T05:40:40.431Z,54.02
2018-08-12T05:41:20.991Z,54.12
2018-08-12T05:42:01.550Z,54.22
2018-08-12T05:42:42.127Z,54.22
2018-08-12T05:43:22.728Z,54.34
2018-08-12T05:44:03.301Z,53.74
2018-08-12T05:44:43.859Z,53.96
2018-08-12T05:45:24.408Z,53.76
2018-08-12T05:46:04.975Z,53.38
2018-08-12T05:46:45.607Z,53.47
2018-08-12T05:47:26.168Z,53.57
2018-08-12T05:48:06.725Z,53.86
2018-08-12T05:48:47.279Z,53.76
2018-08-12T05:49:27.856Z,53.47
2018-08-12T05:50:08.424Z,53.28
2018-08-12T05:50:49.012Z,53.47
2018-08-12T05:51:29.668Z,53.76
2018-08-12T05:52:10.173Z,53.57
2018-08-12T05:52:50.727Z,53.38
2018-08-12T05:53:31.280Z,53.38
2018-08-12T05:54:11.863Z,53.31
2018-08-12T05:54:52.413Z,53.02
2018-08-12T05:55:33.006Z,53.02
2018-08-12T05:56:13.574Z,52.54
2018-08-12T05:56:54.166Z,52.83
2018-08-12T05:57:34.720Z,52.44
2018-08-12T05:58:15.314Z,52.25
2018-08-12T05:58:55.878Z,52.34
2018-08-12T05:59:36.476Z,52.54
2018-08-12T06:00:17.040Z,52.63
2018-08-12T06:00:57.624Z,52.27
2018-08-12T06:01:38.208Z,52.37
2018-08-12T06:02:18.774Z,52.56
2018-08-12T06:02:59.424Z,51.6
2018-08-12T06:03:39.989Z,51.7
2018-08-12T06:04:20.548Z,51.6
2018-08-12T06:05:01.109Z,51.53
2018-08-12T06:05:41.687Z,51.34
2018-08-12T06:06:22.243Z,50.95
2018-08-12T06:07:02.809Z,51.24
2018-08-12T06:07:43.383Z,50.66
2018-08-12T06:08:23.984Z,50.47
2018-08-12T06:09:04.563Z,50.49
2018-08-12T06:09:45.137Z,50.69
2018-08-12T06:10:25.697Z,50.3
2018-08-12T06:11:06.348Z,50.01
2018-08-12T06:11:46.916Z,49.63
2018-08-12T06:12:27.469Z,49.63
2018-08-12T06:13:08.093Z,49.55
2018-08-12T06:13:48.655Z,48.97
2018-08-12T06:14:29.254Z,48.4
2018-08-12T06:15:09.801Z,48.4
2018-08-12T06:15:50.470Z,48.21
2018-08-12T06:16:31.049Z,48.52
2018-08-12T06:17:11.612Z,48.03
2018-08-12T06:17:52.219Z,48.21
2018-08-12T06:18:32.798Z,48.03
2018-08-12T06:19:13.386Z,48.33
2018-08-12T06:19:53.958Z,48.23
2018-08-12T06:20:34.556Z,48.33
2018-08-12T06:21:15.127Z,48.13
2018-08-12T06:21:55.697Z,47.85
2018-08-12T06:22:36.297Z,47.77
2018-08-12T06:23:16.893Z,47.67
2018-08-12T06:23:57.447Z,47.87
2018-08-12T06:24:38.019Z,47.48
2018-08-12T06:25:18.586Z,47.09
2018-08-12T06:25:59.151Z,47
2018-08-12T06:26:39.715Z,47.38
2018-08-12T06:27:20.280Z,46.71
2018-08-12T06:28:00.849Z,47.09
2018-08-12T06:28:41.422Z,46.81
2018-08-12T06:29:21.982Z,46.64
2018-08-12T06:30:02.540Z,46.06
2018-08-12T06:30:43.093Z,46.25
2018-08-12T06:31:23.751Z,45.86
2018-08-12T06:32:04.245Z,45.67
2018-08-12T06:32:44.796Z,45.59
2018-08-12T06:33:25.378Z,45.21
2018-08-12T06:34:05.931Z,44.63
2018-08-12T06:34:46.510Z,44.92
2018-08-12T06:35:27.103Z,44.94
2018-08-12T06:36:07.690Z,44.26
2018-08-12T06:36:48.376Z,44.17
2018-08-12T06:37:28.954Z,44.07
2018-08-12T06:38:10.926Z,43.59
2018-08-12T06:38:51.494Z,43.41
2018-08-12T06:39:32.052Z,43.51
2018-08-12T06:40:12.626Z,42.55
2018-08-12T06:40:53.210Z,41.97
2018-08-12T06:41:33.775Z,41.19
2018-08-12T06:42:14.500Z,41.58
2018-08-12T06:42:55.149Z,41.97
2018-08-12T06:43:35.738Z,42.65
2018-08-12T06:44:16.466Z,42.45
2018-08-12T06:44:57.806Z,41.97
2018-08-12T06:45:38.432Z,41.58
2018-08-12T06:46:18.959Z,41.48
2018-08-12T06:46:59.894Z,41.39
2018-08-12T06:47:40.632Z,41.19
2018-08-12T06:48:21.496Z,41.39
2018-08-12T06:49:02.077Z,41.58
2018-08-12T06:49:42.714Z,40.71
2018-08-12T06:50:23.579Z,40.92
2018-08-12T06:51:04.283Z,41.29
2018-08-12T06:51:45.091Z,41.5
2018-08-12T06:52:25.550Z,41.41
2018-08-12T06:53:06.262Z,41.41
2018-08-12T06:53:47.095Z,41.21
2018-08-12T06:54:27.919Z,41.31
2018-08-12T06:55:08.621Z,41.31
2018-08-12T06:55:49.192Z,40.83
2018-08-12T06:56:29.764Z,40.44
2018-08-12T06:57:10.331Z,40.53
2018-08-12T06:57:50.904Z,40.46
2018-08-12T06:58:31.481Z,40.46
2018-08-12T06:59:12.031Z,40.36
2018-08-12T06:59:52.625Z,39.97
2018-08-12T07:00:34.252Z,40.56
2018-08-12T07:01:15.010Z,41.04
2018-08-12T07:01:55.581Z,40.94
2018-08-12T07:02:36.164Z,40.56
2018-08-12T07:03:16.743Z,40.36
2018-08-12T07:03:57.321Z,40.36
2018-08-12T07:04:37.877Z,41.14
2018-08-12T07:05:18.457Z,40.94
2018-08-12T07:05:59.027Z,40.56
2018-08-12T07:06:39.590Z,40.94
2018-08-12T07:07:20.180Z,39.69
2018-08-12T07:08:00.768Z,38.91
2018-08-12T07:08:41.369Z,39.39
2018-08-12T07:09:21.963Z,39.01
2018-08-12T07:10:02.551Z,39.69
2018-08-12T07:10:43.110Z,39.59
2018-08-12T07:11:23.730Z,39.29
2018-08-12T07:12:04.288Z,39.29
2018-08-12T07:12:44.868Z,39.78
2018-08-12T07:13:25.422Z,39.29
2018-08-12T07:14:06.016Z,39.29
2018-08-12T07:14:46.594Z,39.2
2018-08-12T07:15:27.156Z,39.59
2018-08-12T07:16:07.747Z,40.26
2018-08-12T07:16:48.324Z,40.07
2018-08-12T07:17:28.908Z,39.78
2018-08-12T07:18:09.471Z,39.88
2018-08-12T07:18:50.056Z,39.97
2018-08-12T07:19:30.635Z,40.65
2018-08-12T07:20:11.257Z,40.65
2018-08-12T07:20:51.871Z,40.56
2018-08-12T07:21:32.445Z,40
2018-08-12T07:22:13.034Z,39.8
2018-08-12T07:22:53.606Z,40
2018-08-12T07:23:34.180Z,39.03
2018-08-12T07:24:14.773Z,38.35
2018-08-12T07:24:55.337Z,37.57
2018-08-12T07:25:35.908Z,38.54
2018-08-12T07:26:16.497Z,38.35
2018-08-12T07:26:57.094Z,38.15
2018-08-12T07:27:37.718Z,37.77
2018-08-12T07:28:18.303Z,37.87
2018-08-12T07:28:58.874Z,38.06
2018-08-12T07:29:39.474Z,38.45
2018-08-12T07:30:20.040Z,38.54
2018-08-12T07:31:00.618Z,37.67
2018-08-12T07:31:41.256Z,37.57
2018-08-12T07:32:21.822Z,37.38
2018-08-12T07:33:02.400Z,37.67
2018-08-12T07:33:43.036Z,37.57
2018-08-12T07:34:23.620Z,39.03
2018-08-12T07:35:04.200Z,39.12
2018-08-12T07:35:44.765Z,37.09
2018-08-12T07:36:25.356Z,37.48
2018-08-12T07:37:05.935Z,37.19
2018-08-12T07:37:46.502Z,37.57
2018-08-12T07:38:27.079Z,37.67
2018-08-12T07:39:07.647Z,36.8
2018-08-12T07:39:48.277Z,36.6
2018-08-12T07:40:28.848Z,36.7
2018-08-12T07:41:09.432Z,36.41
2018-08-12T07:41:49.993Z,36.9
2018-08-12T07:42:30.576Z,37.09
2018-08-12T07:43:11.219Z,37.57
2018-08-12T07:43:51.833Z,37.77
2018-08-12T07:44:32.475Z,37.67
2018-08-12T07:45:13.110Z,37.09
2018-08-12T07:45:53.707Z,37.48
2018-08-12T07:46:34.280Z,37.79
2018-08-12T07:47:14.861Z,37.4
2018-08-12T07:47:55.561Z,36.82
2018-08-12T07:48:36.221Z,36.82
2018-08-12T07:49:16.753Z,37.01
2018-08-12T07:49:57.357Z,36.62
2018-08-12T07:50:37.934Z,37.01
2018-08-12T07:51:18.517Z,36.82
2018-08-12T07:51:59.084Z,36.91
2018-08-12T07:52:39.710Z,36.72
2018-08-12T07:53:20.310Z,36.33
2018-08-12T07:54:00.876Z,36.43
2018-08-12T07:54:41.449Z,36.91
2018-08-12T07:55:22.028Z,36.43
2018-08-12T07:56:02.629Z,37.01
2018-08-12T07:56:43.202Z,37.4
2018-08-12T07:57:23.771Z,36.52
2018-08-12T07:58:04.345Z,36.33
2018-08-12T07:58:44.919Z,37.21
2018-08-12T07:59:25.536Z,37.59
2018-08-12T08:00:06.105Z,37.4
2018-08-12T08:00:46.703Z,37.21
2018-08-12T08:01:27.297Z,37.21
2018-08-12T08:02:07.912Z,37.69
2018-08-12T08:02:48.488Z,37.21
2018-08-12T08:03:29.056Z,37.79
2018-08-12T08:04:09.704Z,37.69
2018-08-12T08:04:50.267Z,37.49
2018-08-12T08:05:30.827Z,37.79
2018-08-12T08:06:11.407Z,37.69
2018-08-12T08:06:51.980Z,37.69
2018-08-12T08:07:32.544Z,38.07
2018-08-12T08:08:13.111Z,36.91
2018-08-12T08:08:53.696Z,37.4
2018-08-12T08:09:34.326Z,38.85
2018-08-12T08:10:14.900Z,37.21
2018-08-12T08:10:55.484Z,36.32
2018-08-12T08:11:36.067Z,36.51
2018-08-12T08:12:16.631Z,37.28
2018-08-12T08:12:57.229Z,38.06
2018-08-12T08:13:37.804Z,38.15
2018-08-12T08:14:18.376Z,38.73
2018-08-12T08:14:58.993Z,38.06
2018-08-12T08:15:39.667Z,37.77
2018-08-12T08:16:20.237Z,37.67
2018-08-12T08:17:00.812Z,37.48
2018-08-12T08:17:41.427Z,37.38
2018-08-12T08:18:22.038Z,36.8
2018-08-12T08:19:02.594Z,36.8
2018-08-12T08:19:43.197Z,37.19
2018-08-12T08:20:23.747Z,37.19
2018-08-12T08:21:04.315Z,36.8
2018-08-12T08:21:44.896Z,37.38
2018-08-12T08:22:25.500Z,37.38
2018-08-12T08:23:06.170Z,36.6
2018-08-12T08:23:46.735Z,36.8
2018-08-12T08:24:27.301Z,37.01
2018-08-12T08:25:07.893Z,38.25
2018-08-12T08:25:48.493Z,38.06
2018-08-12T08:26:30.400Z,36.7
2018-08-12T08:27:10.986Z,36.52
2018-08-12T08:27:51.565Z,36.24
2018-08-12T08:28:32.130Z,37.59
2018-08-12T08:29:12.701Z,36.51
2018-08-12T08:29:53.264Z,36.02
2018-08-12T08:30:33.838Z,36.51
2018-08-12T08:31:14.425Z,35.73
2018-08-12T08:31:55.231Z,35.93
2018-08-12T08:32:35.570Z,35.93
2018-08-12T08:33:16.152Z,35.83
2018-08-12T08:33:56.705Z,36.02
2018-08-12T08:34:37.321Z,36.8
2018-08-12T08:35:17.893Z,37.48
2018-08-12T08:35:58.493Z,36.8
2018-08-12T08:36:39.076Z,36.8
2018-08-12T08:37:19.672Z,36.22
2018-08-12T08:38:00.240Z,36.02
2018-08-12T08:38:40.799Z,36.9
2018-08-12T08:39:21.376Z,39.12
2018-08-12T08:40:01.946Z,39.9
2018-08-12T08:40:42.515Z,39.22
2018-08-12T08:41:23.084Z,38.15
2018-08-12T08:42:03.648Z,37.38
2018-08-12T08:42:44.217Z,36.8
2018-08-12T08:43:24.778Z,35.64
2018-08-12T08:44:05.377Z,35.54
2018-08-12T08:44:45.913Z,35.44